createdAt,value
2016-11-04T00:00:43.808Z,983.62
2016-11-04T00:01:52.647Z,983.61
2016-11-04T00:03:01.489Z,983.61
2016-11-04T00:04:10.725Z,983.6
2016-11-04T00:05:19.902Z,983.6
2016-11-04T00:06:28.750Z,983.62
2016-11-04T00:07:37.591Z,983.65
2016-11-04T00:08:46.435Z,983.64
2016-11-04T00:09:55.284Z,983.63
2016-11-04T00:11:04.122Z,983.61
2016-11-04T00:12:12.960Z,983.62
2016-11-04T00:13:21.827Z,983.65
2016-11-04T00:14:30.672Z,983.61
2016-11-04T00:15:39.513Z,983.62
2016-11-04T00:16:48.358Z,983.59
2016-11-04T00:17:57.202Z,983.62
2016-11-04T00:19:06.043Z,983.6
2016-11-04T00:20:14.887Z,983.58
2016-11-04T00:21:23.726Z,983.58
2016-11-04T00:22:32.568Z,983.59
2016-11-04T00:23:41.408Z,983.62
2016-11-04T00:24:50.246Z,983.6
2016-11-04T00:25:59.090Z,983.58
2016-11-04T00:27:07.937Z,983.57
2016-11-04T00:28:16.775Z,983.59
2016-11-04T00:29:25.619Z,983.58
2016-11-04T00:30:34.468Z,983.6
2016-11-04T00:31:43.312Z,983.57
2016-11-04T00:32:52.154Z,983.56
2016-11-04T00:34:01.007Z,983.54
2016-11-04T00:35:09.891Z,983.51
2016-11-04T00:36:18.737Z,983.55
2016-11-04T00:37:27.580Z,983.58
2016-11-04T00:38:36.409Z,983.52
2016-11-04T00:39:45.144Z,983.52
2016-11-04T00:40:53.838Z,983.5
2016-11-04T00:42:02.531Z,983.5
2016-11-04T00:43:11.222Z,983.47
2016-11-04T00:44:19.920Z,983.42
2016-11-04T00:45:28.614Z,983.46
2016-11-04T00:46:37.313Z,983.45
2016-11-04T00:47:46.014Z,983.46
2016-11-04T00:48:54.708Z,983.41
2016-11-04T00:50:03.401Z,983.45
2016-11-04T00:51:12.096Z,983.44
2016-11-04T00:52:20.798Z,983.41
2016-11-04T00:53:29.497Z,983.38
2016-11-04T00:54:38.193Z,983.39
2016-11-04T00:55:46.911Z,983.43
2016-11-04T00:56:55.608Z,983.39
2016-11-04T00:58:04.299Z,983.39
2016-11-04T00:59:12.997Z,983.36
2016-11-04T01:00:21.698Z,983.32
2016-11-04T01:01:30.389Z,983.38
2016-11-04T01:02:39.081Z,983.34
2016-11-04T01:03:47.769Z,983.33
2016-11-04T01:04:56.463Z,983.36
2016-11-04T01:06:05.480Z,983.26
2016-11-04T01:07:14.176Z,983.26
2016-11-04T01:08:22.866Z,983.28
2016-11-04T01:09:31.591Z,983.28
2016-11-04T01:10:40.602Z,983.26
2016-11-04T01:11:49.352Z,983.28
2016-11-04T01:12:58.080Z,983.27
2016-11-04T01:14:06.772Z,983.27
2016-11-04T01:15:15.475Z,983.27
2016-11-04T01:16:24.170Z,983.24
2016-11-04T01:17:32.867Z,983.23
2016-11-04T01:18:41.603Z,983.17
2016-11-04T01:19:50.341Z,983.13
2016-11-04T01:20:59.034Z,983.17
2016-11-04T01:22:07.725Z,983.11
2016-11-04T01:23:16.415Z,983.14
2016-11-04T01:24:25.110Z,983.12
2016-11-04T01:25:33.807Z,983.1
2016-11-04T01:26:42.502Z,983.08
2016-11-04T01:27:51.202Z,983.05
2016-11-04T01:28:59.891Z,983.04
2016-11-04T01:30:08.584Z,983.05
2016-11-04T01:31:17.298Z,983.07
2016-11-04T01:32:26.064Z,983.06
2016-11-04T01:33:35.104Z,983.04
2016-11-04T01:34:43.797Z,983.1
2016-11-04T01:35:52.487Z,983.08
2016-11-04T01:37:01.216Z,983.05
2016-11-04T01:38:09.910Z,983
2016-11-04T01:39:18.608Z,983.02
2016-11-04T01:40:27.317Z,983.03
2016-11-04T01:41:36.014Z,983
2016-11-04T01:42:44.710Z,983.06
2016-11-04T01:43:53.751Z,983.02
2016-11-04T01:45:02.478Z,983.02
2016-11-04T01:46:11.171Z,983.02
2016-11-04T01:47:19.867Z,983.06
2016-11-04T01:48:28.597Z,983
2016-11-04T01:49:37.284Z,983.03
2016-11-04T01:50:46.305Z,983
2016-11-04T01:51:54.990Z,982.98
2016-11-04T01:53:03.691Z,983
2016-11-04T01:54:12.389Z,982.96
2016-11-04T01:55:21.113Z,983
2016-11-04T01:56:29.805Z,983
2016-11-04T01:57:38.498Z,983.02
2016-11-04T01:58:47.193Z,982.98
2016-11-04T01:59:55.883Z,982.99
2016-11-04T02:01:04.574Z,982.99
2016-11-04T02:02:13.266Z,983.01
2016-11-04T02:03:21.959Z,983.03
2016-11-04T02:04:30.653Z,983.01
2016-11-04T02:05:39.343Z,983
2016-11-04T02:06:48.043Z,983.05
2016-11-04T02:07:56.738Z,982.97
2016-11-04T02:09:05.439Z,983
2016-11-04T02:10:14.136Z,983.03
2016-11-04T02:11:22.833Z,983
2016-11-04T02:12:31.527Z,982.99
2016-11-04T02:13:40.217Z,982.96
2016-11-04T02:14:48.924Z,983.02
2016-11-04T02:15:57.613Z,982.94
2016-11-04T02:17:06.350Z,982.93
2016-11-04T02:18:15.037Z,982.95
2016-11-04T02:19:23.732Z,982.94
2016-11-04T02:20:32.421Z,982.94
2016-11-04T02:21:41.151Z,982.94
2016-11-04T02:22:49.844Z,982.86
2016-11-04T02:23:58.535Z,982.92
2016-11-04T02:25:07.227Z,982.9
2016-11-04T02:26:15.919Z,982.89
2016-11-04T02:27:24.610Z,982.88
2016-11-04T02:28:33.311Z,982.87
2016-11-04T02:29:42.002Z,982.92
2016-11-04T02:30:50.702Z,982.87
2016-11-04T02:31:59.402Z,982.88
2016-11-04T02:33:08.091Z,982.84
2016-11-04T02:34:16.822Z,982.79
2016-11-04T02:35:25.512Z,982.83
2016-11-04T02:36:34.217Z,982.86
2016-11-04T02:37:42.910Z,982.83
2016-11-04T02:38:51.605Z,982.88
2016-11-04T02:40:00.318Z,982.85
2016-11-04T02:41:09.010Z,982.83
2016-11-04T02:42:17.706Z,982.84
2016-11-04T02:43:26.400Z,982.84
2016-11-04T02:44:35.099Z,982.82
2016-11-04T02:45:43.837Z,982.81
2016-11-04T02:46:52.532Z,982.82
2016-11-04T02:48:01.229Z,982.8
2016-11-04T02:49:09.921Z,982.78
2016-11-04T02:50:18.624Z,982.77
2016-11-04T02:51:27.323Z,982.78
2016-11-04T02:52:36.021Z,982.79
2016-11-04T02:53:44.753Z,982.82
2016-11-04T02:54:53.455Z,982.78
2016-11-04T02:56:02.146Z,982.77
2016-11-04T02:57:10.843Z,982.74
2016-11-04T02:58:19.533Z,982.75
2016-11-04T02:59:28.231Z,982.77
2016-11-04T03:00:36.927Z,982.78
2016-11-04T03:01:45.941Z,982.79
2016-11-04T03:02:54.677Z,982.75
2016-11-04T03:04:03.377Z,982.76
2016-11-04T03:05:12.067Z,982.8
2016-11-04T03:06:20.758Z,982.76
2016-11-04T03:07:29.459Z,982.79
2016-11-04T03:08:38.188Z,982.76
2016-11-04T03:09:46.880Z,982.75
2016-11-04T03:10:55.574Z,982.72
2016-11-04T03:12:04.275Z,982.74
2016-11-04T03:13:12.964Z,982.73
2016-11-04T03:14:21.657Z,982.73
2016-11-04T03:15:30.350Z,982.69
2016-11-04T03:16:39.047Z,982.74
2016-11-04T03:17:48.059Z,982.71
2016-11-04T03:18:56.789Z,982.73
2016-11-04T03:20:05.487Z,982.69
2016-11-04T03:21:14.183Z,982.68
2016-11-04T03:22:22.873Z,982.69
2016-11-04T03:23:31.571Z,982.68
2016-11-04T03:24:40.263Z,982.69
2016-11-04T03:25:48.956Z,982.71
2016-11-04T03:26:57.648Z,982.67
2016-11-04T03:28:06.346Z,982.68
2016-11-04T03:29:15.077Z,982.64
2016-11-04T03:30:24.089Z,982.68
2016-11-04T03:31:32.783Z,982.66
2016-11-04T03:32:41.478Z,982.66
2016-11-04T03:33:50.173Z,982.66
2016-11-04T03:34:58.869Z,982.67
2016-11-04T03:36:07.565Z,982.61
2016-11-04T03:37:16.267Z,982.66
2016-11-04T03:38:25.274Z,982.69
2016-11-04T03:39:33.973Z,982.69
2016-11-04T03:40:42.664Z,982.67
2016-11-04T03:41:51.362Z,982.71
2016-11-04T03:43:00.096Z,982.68
2016-11-04T03:44:09.113Z,982.7
2016-11-04T03:45:17.809Z,982.71
2016-11-04T03:46:26.502Z,982.7
2016-11-04T03:47:35.198Z,982.66
2016-11-04T03:48:43.887Z,982.68
2016-11-04T03:49:52.585Z,982.66
2016-11-04T03:51:01.285Z,982.66
2016-11-04T03:52:09.979Z,982.67
2016-11-04T03:53:18.671Z,982.66
2016-11-04T03:54:27.364Z,982.66
2016-11-04T03:55:36.058Z,982.65
2016-11-04T03:56:45.065Z,982.63
2016-11-04T03:57:53.764Z,982.63
2016-11-04T03:59:02.460Z,982.62
2016-11-04T04:00:11.153Z,982.64
2016-11-04T04:01:19.846Z,982.63
2016-11-04T04:02:28.540Z,982.64
2016-11-04T04:03:37.231Z,982.6
2016-11-04T04:04:45.929Z,982.6
2016-11-04T04:05:54.619Z,982.6
2016-11-04T04:07:03.313Z,982.6
2016-11-04T04:08:12.006Z,982.66
2016-11-04T04:09:20.701Z,982.61
2016-11-04T04:10:29.400Z,982.61
2016-11-04T04:11:38.095Z,982.61
2016-11-04T04:12:46.875Z,982.6
2016-11-04T04:13:55.570Z,982.62
2016-11-04T04:15:04.306Z,982.61
2016-11-04T04:16:13.309Z,982.6
2016-11-04T04:17:21.998Z,982.58
2016-11-04T04:18:30.692Z,982.6
2016-11-04T04:19:39.392Z,982.59
2016-11-04T04:20:48.128Z,982.57
2016-11-04T04:21:56.825Z,982.58
2016-11-04T04:23:05.521Z,982.58
2016-11-04T04:24:14.216Z,982.56
2016-11-04T04:25:22.904Z,982.53
2016-11-04T04:26:31.595Z,982.54
2016-11-04T04:27:40.299Z,982.54
2016-11-04T04:28:48.996Z,982.56
2016-11-04T04:29:57.691Z,982.54
2016-11-04T04:31:06.387Z,982.55
2016-11-04T04:32:15.083Z,982.54
2016-11-04T04:33:23.780Z,982.54
2016-11-04T04:34:32.472Z,982.55
2016-11-04T04:35:41.162Z,982.54
2016-11-04T04:36:50.189Z,982.53
2016-11-04T04:37:58.886Z,982.54
2016-11-04T04:39:07.599Z,982.51
2016-11-04T04:40:16.289Z,982.52
2016-11-04T04:41:24.988Z,982.55
2016-11-04T04:42:33.677Z,982.53
2016-11-04T04:43:42.372Z,982.54
2016-11-04T04:44:51.064Z,982.59
2016-11-04T04:45:59.759Z,982.54
2016-11-04T04:47:08.491Z,982.54
2016-11-04T04:48:17.184Z,982.54
2016-11-04T04:49:25.879Z,982.47
2016-11-04T04:50:34.571Z,982.51
2016-11-04T04:51:43.267Z,982.47
2016-11-04T04:52:51.960Z,982.51
2016-11-04T04:54:00.675Z,982.46
2016-11-04T04:55:09.367Z,982.47
2016-11-04T04:56:18.063Z,982.48
2016-11-04T04:57:26.754Z,982.47
2016-11-04T04:58:35.451Z,982.45
2016-11-04T04:59:44.142Z,982.46
2016-11-04T05:00:52.838Z,982.48
2016-11-04T05:02:01.846Z,982.51
2016-11-04T05:03:10.571Z,982.47
2016-11-04T05:04:19.263Z,982.49
2016-11-04T05:05:27.965Z,982.44
2016-11-04T05:06:36.662Z,982.48
2016-11-04T05:07:45.356Z,982.49
2016-11-04T05:08:54.045Z,982.44
2016-11-04T05:10:02.740Z,982.41
2016-11-04T05:11:11.431Z,982.47
2016-11-04T05:12:20.122Z,982.45
2016-11-04T05:13:28.817Z,982.46
2016-11-04T05:14:37.512Z,982.44
2016-11-04T05:15:46.207Z,982.45
2016-11-04T05:16:54.898Z,982.42
2016-11-04T05:18:03.636Z,982.47
2016-11-04T05:19:12.328Z,982.45
2016-11-04T05:20:21.025Z,982.43
2016-11-04T05:21:29.718Z,982.46
2016-11-04T05:22:38.427Z,982.46
2016-11-04T05:23:47.131Z,982.47
2016-11-04T05:24:55.836Z,982.46
2016-11-04T05:26:04.849Z,982.48
2016-11-04T05:27:13.582Z,982.48
2016-11-04T05:28:22.277Z,982.49
2016-11-04T05:29:30.973Z,982.47
2016-11-04T05:30:39.668Z,982.48
2016-11-04T05:31:48.358Z,982.47
2016-11-04T05:32:57.049Z,982.49
2016-11-04T05:34:05.740Z,982.44
2016-11-04T05:35:14.431Z,982.44
2016-11-04T05:36:23.128Z,982.46
2016-11-04T05:37:31.817Z,982.43
2016-11-04T05:38:40.510Z,982.45
2016-11-04T05:39:49.524Z,982.47
2016-11-04T05:40:58.220Z,982.44
2016-11-04T05:42:06.914Z,982.43
2016-11-04T05:43:15.659Z,982.47
2016-11-04T05:44:24.451Z,982.47
2016-11-04T05:45:33.146Z,982.44
2016-11-04T05:46:41.839Z,982.46
2016-11-04T05:47:50.536Z,982.44
2016-11-04T05:48:59.235Z,982.42
2016-11-04T05:50:07.930Z,982.4
2016-11-04T05:51:16.618Z,982.43
2016-11-04T05:52:25.307Z,982.42
2016-11-04T05:53:33.998Z,982.46
2016-11-04T05:54:42.693Z,982.44
2016-11-04T05:55:51.386Z,982.41
2016-11-04T05:57:00.406Z,982.43
2016-11-04T05:58:09.097Z,982.43
2016-11-04T05:59:17.787Z,982.39
2016-11-04T06:00:26.486Z,982.43
2016-11-04T06:01:35.215Z,982.39
2016-11-04T06:02:43.941Z,982.32
2016-11-04T06:03:52.644Z,982.36
2016-11-04T06:05:01.333Z,982.31
2016-11-04T06:06:10.021Z,982.38
2016-11-04T06:07:18.758Z,982.37
2016-11-04T06:08:27.452Z,982.38
2016-11-04T06:09:36.142Z,982.34
2016-11-04T06:10:44.875Z,982.35
2016-11-04T06:11:53.568Z,982.33
2016-11-04T06:13:02.261Z,982.35
2016-11-04T06:14:10.952Z,982.33
2016-11-04T06:15:19.654Z,982.39
2016-11-04T06:16:28.347Z,982.37
2016-11-04T06:17:37.037Z,982.36
2016-11-04T06:18:45.734Z,982.33
2016-11-04T06:19:54.473Z,982.36
2016-11-04T06:21:03.162Z,982.35
2016-11-04T06:22:11.867Z,982.37
2016-11-04T06:23:20.557Z,982.39
2016-11-04T06:24:29.247Z,982.38
2016-11-04T06:25:37.940Z,982.37
2016-11-04T06:26:46.665Z,982.42
2016-11-04T06:27:55.396Z,982.4
2016-11-04T06:29:04.086Z,982.42
2016-11-04T06:30:12.793Z,982.4
2016-11-04T06:31:21.490Z,982.39
2016-11-04T06:32:30.184Z,982.36
2016-11-04T06:33:38.905Z,982.38
2016-11-04T06:34:47.595Z,982.36
2016-11-04T06:35:56.284Z,982.4
2016-11-04T06:37:04.985Z,982.38
2016-11-04T06:38:13.678Z,982.36
2016-11-04T06:39:22.369Z,982.41
2016-11-04T06:40:31.065Z,982.36
2016-11-04T06:41:40.078Z,982.36
2016-11-04T06:42:48.772Z,982.38
2016-11-04T06:43:57.493Z,982.39
2016-11-04T06:45:06.222Z,982.38
2016-11-04T06:46:14.916Z,982.39
2016-11-04T06:47:23.609Z,982.37
2016-11-04T06:48:32.294Z,982.38
2016-11-04T06:49:40.987Z,982.36
2016-11-04T06:50:49.677Z,982.39
2016-11-04T06:51:58.373Z,982.38
2016-11-04T06:53:07.071Z,982.37
2016-11-04T06:54:15.795Z,982.4
2016-11-04T06:55:24.488Z,982.4
2016-11-04T06:56:33.185Z,982.35
2016-11-04T06:57:42.207Z,982.4
2016-11-04T06:58:50.900Z,982.43
2016-11-04T06:59:59.587Z,982.43
2016-11-04T07:01:08.276Z,982.39
2016-11-04T07:02:16.974Z,982.43
2016-11-04T07:03:25.991Z,982.49
2016-11-04T07:04:34.680Z,982.46
2016-11-04T07:05:43.364Z,982.45
2016-11-04T07:06:52.066Z,982.46
2016-11-04T07:08:00.757Z,982.49
2016-11-04T07:09:09.446Z,982.5
2016-11-04T07:10:18.137Z,982.49
2016-11-04T07:11:26.826Z,982.47
2016-11-04T07:12:35.559Z,982.43
2016-11-04T07:13:44.251Z,982.44
2016-11-04T07:14:52.940Z,982.45
2016-11-04T07:16:01.634Z,982.48
2016-11-04T07:17:10.744Z,982.45
2016-11-04T07:18:19.443Z,982.46
2016-11-04T07:19:28.138Z,982.49
2016-11-04T07:20:37.148Z,982.5
2016-11-04T07:21:45.843Z,982.49
2016-11-04T07:22:54.580Z,982.51
2016-11-04T07:24:03.270Z,982.51
2016-11-04T07:25:11.961Z,982.5
2016-11-04T07:26:20.648Z,982.49
2016-11-04T07:27:29.342Z,982.5
2016-11-04T07:28:38.037Z,982.51
2016-11-04T07:29:46.766Z,982.5
2016-11-04T07:30:55.456Z,982.5
2016-11-04T07:32:04.150Z,982.51
2016-11-04T07:33:12.841Z,982.5
2016-11-04T07:34:21.542Z,982.48
2016-11-04T07:35:30.233Z,982.48
2016-11-04T07:36:38.928Z,982.49
2016-11-04T07:37:47.626Z,982.47
2016-11-04T07:38:56.330Z,982.51
2016-11-04T07:40:05.337Z,982.47
2016-11-04T07:41:14.031Z,982.5
2016-11-04T07:42:22.726Z,982.51
2016-11-04T07:43:31.416Z,982.53
2016-11-04T07:44:40.148Z,982.5
2016-11-04T07:45:48.842Z,982.51
2016-11-04T07:46:57.537Z,982.48
2016-11-04T07:48:06.243Z,982.47
2016-11-04T07:49:14.935Z,982.47
2016-11-04T07:50:23.624Z,982.47
2016-11-04T07:51:32.324Z,982.48
2016-11-04T07:52:41.027Z,982.49
2016-11-04T07:53:49.722Z,982.49
2016-11-04T07:54:58.422Z,982.5
2016-11-04T07:56:07.469Z,982.48
2016-11-04T07:57:16.178Z,982.47
2016-11-04T07:58:24.868Z,982.48
2016-11-04T07:59:33.562Z,982.48
2016-11-04T08:00:42.260Z,982.51
2016-11-04T08:01:50.956Z,982.51
2016-11-04T08:02:59.654Z,982.47
2016-11-04T08:04:08.346Z,982.54
2016-11-04T08:05:17.065Z,982.5
2016-11-04T08:06:25.756Z,982.46
2016-11-04T08:07:34.476Z,982.45
2016-11-04T08:08:43.173Z,982.5
2016-11-04T08:09:51.871Z,982.44
2016-11-04T08:11:00.560Z,982.5
2016-11-04T08:12:09.296Z,982.48
2016-11-04T08:13:17.983Z,982.47
2016-11-04T08:14:26.683Z,982.46
2016-11-04T08:15:35.381Z,982.48
2016-11-04T08:16:44.082Z,982.49
2016-11-04T08:17:52.775Z,982.48
2016-11-04T08:19:01.470Z,982.5
2016-11-04T08:20:10.161Z,982.51
2016-11-04T08:21:18.852Z,982.5
2016-11-04T08:22:27.541Z,982.54
2016-11-04T08:23:36.234Z,982.52
2016-11-04T08:24:45.252Z,982.52
2016-11-04T08:25:53.996Z,982.5
2016-11-04T08:27:02.692Z,982.54
2016-11-04T08:28:11.393Z,982.57
2016-11-04T08:29:20.118Z,982.56
2016-11-04T08:30:28.818Z,982.53
2016-11-04T08:31:37.519Z,982.56
2016-11-04T08:32:46.213Z,982.55
2016-11-04T08:33:54.950Z,982.54
2016-11-04T08:35:03.697Z,982.6
2016-11-04T08:36:12.685Z,982.61
2016-11-04T08:37:21.381Z,982.58
2016-11-04T08:38:30.078Z,982.57
2016-11-04T08:39:38.784Z,982.58
2016-11-04T08:40:47.478Z,982.55
2016-11-04T08:41:56.179Z,982.59
2016-11-04T08:43:04.867Z,982.59
2016-11-04T08:44:13.563Z,982.6
2016-11-04T08:45:22.256Z,982.65
2016-11-04T08:46:30.954Z,982.64
2016-11-04T08:47:39.654Z,982.66
2016-11-04T08:48:48.355Z,982.67
2016-11-04T08:49:57.052Z,982.68
2016-11-04T08:51:06.069Z,982.63
2016-11-04T08:52:14.773Z,982.65
2016-11-04T08:53:23.592Z,982.65
2016-11-04T08:54:32.297Z,982.67
2016-11-04T08:55:40.990Z,982.63
2016-11-04T08:56:49.686Z,982.66
2016-11-04T08:57:58.378Z,982.63
2016-11-04T08:59:07.079Z,982.62
2016-11-04T09:00:15.777Z,982.66
2016-11-04T09:01:24.474Z,982.67
2016-11-04T09:02:33.169Z,982.68
2016-11-04T09:03:41.865Z,982.63
2016-11-04T09:04:50.572Z,982.64
2016-11-04T09:05:59.270Z,982.63
2016-11-04T09:07:07.966Z,982.7
2016-11-04T09:08:16.660Z,982.73
2016-11-04T09:09:25.392Z,982.7
2016-11-04T09:10:34.097Z,982.66
2016-11-04T09:11:42.802Z,982.66
2016-11-04T09:12:51.496Z,982.68
2016-11-04T09:14:00.187Z,982.7
2016-11-04T09:15:08.880Z,982.71
2016-11-04T09:16:17.902Z,982.69
2016-11-04T09:17:26.597Z,982.73
2016-11-04T09:18:35.292Z,982.72
2016-11-04T09:19:43.991Z,982.71
2016-11-04T09:20:52.694Z,982.74
2016-11-04T09:22:01.394Z,982.72
2016-11-04T09:23:10.426Z,982.68
2016-11-04T09:24:19.133Z,982.67
2016-11-04T09:25:27.833Z,982.7
2016-11-04T09:26:36.536Z,982.69
2016-11-04T09:27:45.243Z,982.71
2016-11-04T09:28:53.971Z,982.69
2016-11-04T09:30:02.665Z,982.73
2016-11-04T09:31:11.364Z,982.71
2016-11-04T09:32:20.061Z,982.72
2016-11-04T09:33:28.751Z,982.71
2016-11-04T09:34:37.489Z,982.69
2016-11-04T09:35:46.201Z,982.66
2016-11-04T09:36:54.943Z,982.66
2016-11-04T09:38:03.677Z,982.62
2016-11-04T09:39:12.374Z,982.67
2016-11-04T09:40:21.071Z,982.66
2016-11-04T09:41:29.814Z,982.69
2016-11-04T09:42:38.510Z,982.66
2016-11-04T09:43:47.207Z,982.69
2016-11-04T09:44:56.051Z,982.7
2016-11-04T09:46:04.752Z,982.69
2016-11-04T09:47:13.447Z,982.66
2016-11-04T09:48:22.143Z,982.67
2016-11-04T09:49:30.861Z,982.66
2016-11-04T09:50:39.557Z,982.67
2016-11-04T09:51:48.257Z,982.68
2016-11-04T09:52:56.991Z,982.68
2016-11-04T09:54:05.696Z,982.71
2016-11-04T09:55:14.396Z,982.74
2016-11-04T09:56:23.090Z,982.65
2016-11-04T09:57:31.783Z,982.66
2016-11-04T09:58:40.481Z,982.65
2016-11-04T09:59:49.179Z,982.64
2016-11-04T10:00:57.883Z,982.62
2016-11-04T10:02:06.901Z,982.65
2016-11-04T10:03:15.628Z,982.62
2016-11-04T10:04:24.323Z,982.63
2016-11-04T10:05:33.013Z,982.68
2016-11-04T10:06:41.707Z,982.69
2016-11-04T10:07:50.447Z,982.63
2016-11-04T10:08:59.189Z,982.66
2016-11-04T10:10:07.881Z,982.69
2016-11-04T10:11:16.573Z,982.65
2016-11-04T10:12:25.273Z,982.63
2016-11-04T10:13:33.969Z,982.6
2016-11-04T10:14:42.663Z,982.6
2016-11-04T10:15:51.360Z,982.6
2016-11-04T10:17:00.062Z,982.62
2016-11-04T10:18:08.762Z,982.65
2016-11-04T10:19:17.463Z,982.62
2016-11-04T10:20:26.155Z,982.64
2016-11-04T10:21:34.888Z,982.64
2016-11-04T10:22:43.587Z,982.66
2016-11-04T10:23:52.282Z,982.62
2016-11-04T10:25:00.983Z,982.63
2016-11-04T10:26:09.680Z,982.6
2016-11-04T10:27:18.374Z,982.58
2016-11-04T10:28:27.070Z,982.64
2016-11-04T10:29:35.771Z,982.64
2016-11-04T10:30:44.463Z,982.63
2016-11-04T10:31:53.155Z,982.56
2016-11-04T10:33:01.854Z,982.51
2016-11-04T10:34:10.550Z,982.52
2016-11-04T10:35:19.285Z,982.54
2016-11-04T10:36:27.982Z,982.49
2016-11-04T10:37:36.678Z,982.49
2016-11-04T10:38:45.374Z,982.48
2016-11-04T10:39:54.067Z,982.5
2016-11-04T10:41:02.757Z,982.49
2016-11-04T10:42:11.454Z,982.46
2016-11-04T10:43:20.149Z,982.47
2016-11-04T10:44:28.846Z,982.49
2016-11-04T10:45:37.557Z,982.48
2016-11-04T10:46:46.251Z,982.48
2016-11-04T10:47:54.948Z,982.47
2016-11-04T10:49:03.648Z,982.53
2016-11-04T10:50:12.341Z,982.48
2016-11-04T10:51:21.038Z,982.46
2016-11-04T10:52:30.051Z,982.52
2016-11-04T10:53:38.747Z,982.53
2016-11-04T10:54:47.441Z,982.56
2016-11-04T10:55:56.137Z,982.57
2016-11-04T10:57:04.831Z,982.53
2016-11-04T10:58:13.526Z,982.46
2016-11-04T10:59:22.220Z,982.4
2016-11-04T11:00:30.923Z,982.45
2016-11-04T11:01:39.620Z,982.37
2016-11-04T11:02:48.331Z,982.4
2016-11-04T11:03:57.022Z,982.38
2016-11-04T11:05:05.720Z,982.41
2016-11-04T11:06:14.420Z,982.38
2016-11-04T11:07:23.113Z,982.41
2016-11-04T11:08:31.809Z,982.39
2016-11-04T11:09:40.500Z,982.42
2016-11-04T11:10:49.199Z,982.41
2016-11-04T11:11:57.904Z,982.41
2016-11-04T11:13:06.600Z,982.37
2016-11-04T11:14:15.300Z,982.42
2016-11-04T11:15:23.999Z,982.42
2016-11-04T11:16:32.698Z,982.43
2016-11-04T11:17:41.395Z,982.4
2016-11-04T11:18:50.088Z,982.46
2016-11-04T11:19:58.790Z,982.39
2016-11-04T11:21:07.487Z,982.41
2016-11-04T11:22:16.181Z,982.4
2016-11-04T11:23:24.914Z,982.38
2016-11-04T11:24:33.652Z,982.37
2016-11-04T11:25:42.351Z,982.39
2016-11-04T11:26:51.047Z,982.38
2016-11-04T11:27:59.747Z,982.35
2016-11-04T11:29:08.446Z,982.32
2016-11-04T11:30:17.153Z,982.34
2016-11-04T11:31:25.850Z,982.33
2016-11-04T11:32:34.581Z,982.3
2016-11-04T11:33:43.286Z,982.3
2016-11-04T11:34:51.981Z,982.29
2016-11-04T11:36:00.688Z,982.27
2016-11-04T11:37:09.394Z,982.26
2016-11-04T11:38:18.088Z,982.23
2016-11-04T11:39:26.784Z,982.26
2016-11-04T11:40:35.481Z,982.23
2016-11-04T11:41:44.177Z,982.27
2016-11-04T11:42:52.904Z,982.24
2016-11-04T11:44:01.602Z,982.25
2016-11-04T11:45:10.300Z,982.26
2016-11-04T11:46:18.998Z,982.27
2016-11-04T11:47:27.699Z,982.24
2016-11-04T11:48:36.437Z,982.23
2016-11-04T11:49:45.128Z,982.24
2016-11-04T11:50:53.827Z,982.22
2016-11-04T11:52:02.519Z,982.22
2016-11-04T11:53:11.222Z,982.17
2016-11-04T11:54:19.925Z,982.2
2016-11-04T11:55:28.622Z,982.19
2016-11-04T11:56:37.320Z,982.13
2016-11-04T11:57:46.015Z,982.14
2016-11-04T11:58:54.714Z,982.15
2016-11-04T12:00:03.417Z,982.11
2016-11-04T12:01:12.113Z,982.11
2016-11-04T12:02:20.806Z,982.1
2016-11-04T12:03:29.537Z,982.12
2016-11-04T12:04:38.234Z,982.12
2016-11-04T12:05:46.936Z,982.08
2016-11-04T12:06:55.633Z,982.13
2016-11-04T12:08:04.328Z,982.09
2016-11-04T12:09:13.057Z,982.05
2016-11-04T12:10:21.746Z,982.03
2016-11-04T12:11:30.439Z,982.02
2016-11-04T12:12:39.140Z,982.03
2016-11-04T12:13:47.878Z,982.03
2016-11-04T12:14:56.576Z,982.04
2016-11-04T12:16:05.276Z,982.01
2016-11-04T12:17:13.970Z,981.97
2016-11-04T12:18:22.667Z,981.99
2016-11-04T12:19:31.363Z,981.93
2016-11-04T12:20:40.063Z,981.93
2016-11-04T12:21:48.791Z,981.95
2016-11-04T12:22:57.800Z,981.96
2016-11-04T12:24:06.504Z,981.91
2016-11-04T12:25:15.211Z,981.94
2016-11-04T12:26:23.906Z,981.94
2016-11-04T12:27:32.605Z,981.99
2016-11-04T12:28:41.340Z,981.95
2016-11-04T12:29:50.085Z,981.96
2016-11-04T12:30:58.778Z,981.96
2016-11-04T12:32:07.480Z,981.94
2016-11-04T12:33:16.176Z,981.92
2016-11-04T12:34:24.870Z,981.93
2016-11-04T12:35:33.567Z,981.91
2016-11-04T12:36:42.259Z,981.91
2016-11-04T12:37:50.955Z,981.93
2016-11-04T12:38:59.676Z,981.96
2016-11-04T12:40:08.371Z,981.92
2016-11-04T12:41:17.067Z,981.93
2016-11-04T12:42:25.763Z,981.91
2016-11-04T12:43:34.462Z,981.9
2016-11-04T12:44:43.167Z,981.87
2016-11-04T12:45:51.860Z,981.88
2016-11-04T12:47:00.560Z,981.86
2016-11-04T12:48:09.265Z,981.84
2016-11-04T12:49:17.968Z,981.82
2016-11-04T12:50:27.262Z,981.81
2016-11-04T12:51:35.960Z,981.83
2016-11-04T12:52:44.659Z,981.76
2016-11-04T12:53:53.363Z,981.8
2016-11-04T12:55:02.063Z,981.75
2016-11-04T12:56:10.765Z,981.72
2016-11-04T12:57:19.459Z,981.75
2016-11-04T12:58:28.207Z,981.75
2016-11-04T12:59:36.903Z,981.74
2016-11-04T13:00:45.599Z,981.74
2016-11-04T13:01:54.295Z,981.74
2016-11-04T13:03:03.003Z,981.73
2016-11-04T13:04:11.712Z,981.76
2016-11-04T13:05:20.421Z,981.71
2016-11-04T13:06:29.138Z,981.73
2016-11-04T13:07:37.835Z,981.68
2016-11-04T13:08:46.528Z,981.67
2016-11-04T13:09:55.275Z,981.67
2016-11-04T13:11:03.969Z,981.68
2016-11-04T13:12:12.666Z,981.66
2016-11-04T13:13:21.364Z,981.68
2016-11-04T13:14:30.059Z,981.68
2016-11-04T13:15:38.759Z,981.66
2016-11-04T13:16:47.452Z,981.67
2016-11-04T13:17:56.184Z,981.64
2016-11-04T13:19:04.878Z,981.63
2016-11-04T13:20:13.887Z,981.63
2016-11-04T13:21:22.582Z,981.63
2016-11-04T13:22:31.282Z,981.61
2016-11-04T13:23:39.979Z,981.6
2016-11-04T13:24:48.992Z,981.63
2016-11-04T13:25:57.686Z,981.66
2016-11-04T13:27:06.382Z,981.66
2016-11-04T13:28:15.079Z,981.68
2016-11-04T13:29:23.773Z,981.68
2016-11-04T13:30:32.513Z,981.7
2016-11-04T13:31:41.209Z,981.66
2016-11-04T13:32:49.935Z,981.7
2016-11-04T13:33:58.634Z,981.67
2016-11-04T13:35:07.332Z,981.69
2016-11-04T13:36:16.027Z,981.68
2016-11-04T13:37:24.720Z,981.72
2016-11-04T13:38:33.415Z,981.68
2016-11-04T13:39:42.106Z,981.72
2016-11-04T13:40:50.798Z,981.75
2016-11-04T13:41:59.498Z,981.76
2016-11-04T13:43:08.192Z,981.65
2016-11-04T13:44:16.886Z,981.71
2016-11-04T13:45:25.894Z,981.72
2016-11-04T13:46:34.589Z,981.73
2016-11-04T13:47:43.284Z,981.73
2016-11-04T13:48:52.632Z,981.78
2016-11-04T13:50:01.328Z,981.77
2016-11-04T13:51:10.032Z,981.77
2016-11-04T13:52:18.729Z,981.76
2016-11-04T13:53:27.427Z,981.75
2016-11-04T13:54:36.126Z,981.74
2016-11-04T13:55:44.821Z,981.72
2016-11-04T13:56:53.548Z,981.73
2016-11-04T13:58:02.245Z,981.7
2016-11-04T13:59:10.937Z,981.69
2016-11-04T14:00:19.637Z,981.71
2016-11-04T14:01:28.330Z,981.69
2016-11-04T14:02:37.029Z,981.69
2016-11-04T14:03:45.724Z,981.66
2016-11-04T14:04:54.417Z,981.68
2016-11-04T14:06:03.116Z,981.67
2016-11-04T14:07:11.818Z,981.67
2016-11-04T14:08:20.511Z,981.68
2016-11-04T14:09:29.237Z,981.7
2016-11-04T14:10:37.932Z,981.7
2016-11-04T14:11:46.623Z,981.68
2016-11-04T14:12:55.336Z,981.67
2016-11-04T14:14:04.024Z,981.63
2016-11-04T14:15:12.718Z,981.62
2016-11-04T14:16:21.409Z,981.66
2016-11-04T14:17:30.097Z,981.61
2016-11-04T14:18:38.789Z,981.66
2016-11-04T14:19:47.483Z,981.63
2016-11-04T14:20:56.217Z,981.62